sensor_id;sensor_type;location;lat;lon;timestamp;P1;durP1;ratioP1;P2;durP2;ratioP2
24090;SDS011;12272;52.426;17.100;2022-11-21T00:01:12;64.33;;;33.50;;
24090;SDS011;12272;52.426;17.100;2022-11-21T00:06:27;58.47;;;31.47;;
24090;SDS011;12272;52.426;17.100;2022-11-21T00:11:29;65.70;;;33.13;;
24090;SDS011;12272;52.426;17.100;2022-11-21T00:16:32;62.57;;;31.47;;
24090;SDS011;12272;52.426;17.100;2022-11-21T00:21:34;58.63;;;30.97;;
24090;SDS011;12272;52.426;17.100;2022-11-21T00:26:37;64.90;;;37.60;;
24090;SDS011;12272;52.426;17.100;2022-11-21T00:31:39;50.33;;;28.77;;
24090;SDS011;12272;52.426;17.100;2022-11-21T00:36:42;53.93;;;29.03;;
24090;SDS011;12272;52.426;17.100;2022-11-21T00:41:45;57.97;;;28.63;;
24090;SDS011;12272;52.426;17.100;2022-11-21T00:46:47;51.53;;;26.67;;
24090;SDS011;12272;52.426;17.100;2022-11-21T00:51:49;56.20;;;28.50;;
24090;SDS011;12272;52.426;17.100;2022-11-21T00:56:52;48.27;;;26.97;;
24090;SDS011;12272;52.426;17.100;2022-11-21T01:01:54;53.70;;;28.20;;
24090;SDS011;12272;52.426;17.100;2022-11-21T01:06:57;49.87;;;27.00;;
24090;SDS011;12272;52.426;17.100;2022-11-21T01:11:59;52.93;;;27.50;;
24090;SDS011;12272;52.426;17.100;2022-11-21T01:17:02;53.87;;;29.70;;
24090;SDS011;12272;52.426;17.100;2022-11-21T01:22:04;56.67;;;30.43;;
24090;SDS011;12272;52.426;17.100;2022-11-21T01:27:07;52.40;;;28.47;;
24090;SDS011;12272;52.426;17.100;2022-11-21T01:32:09;55.27;;;30.03;;
24090;SDS011;12272;52.426;17.100;2022-11-21T01:37:12;58.63;;;30.00;;
24090;SDS011;12272;52.426;17.100;2022-11-21T01:42:14;50.50;;;26.57;;
24090;SDS011;12272;52.426;17.100;2022-11-21T01:47:17;52.97;;;27.70;;
24090;SDS011;12272;52.426;17.100;2022-11-21T02:02:32;44.00;;;23.47;;
24090;SDS011;12272;52.426;17.100;2022-11-21T02:07:38;43.97;;;24.50;;
24090;SDS011;12272;52.426;17.100;2022-11-21T02:12:48;39.13;;;21.43;;
24090;SDS011;12272;52.426;17.100;2022-11-21T02:17:52;45.10;;;25.57;;
24090;SDS011;12272;52.426;17.100;2022-11-21T02:28:16;47.67;;;26.33;;
24090;SDS011;12272;52.426;17.100;2022-11-21T02:33:21;40.80;;;24.77;;
24090;SDS011;12272;52.426;17.100;2022-11-21T02:38:36;40.33;;;24.03;;
24090;SDS011;12272;52.426;17.100;2022-11-21T02:49:02;37.60;;;22.13;;
24090;SDS011;12272;52.426;17.100;2022-11-21T02:54:09;46.47;;;26.73;;
24090;SDS011;12272;52.426;17.100;2022-11-21T02:59:11;29.87;;;17.77;;
24090;SDS011;12272;52.426;17.100;2022-11-21T03:04:13;41.27;;;24.10;;
24090;SDS011;12272;52.426;17.100;2022-11-21T03:09:16;40.20;;;22.80;;
24090;SDS011;12272;52.426;17.100;2022-11-21T03:14:19;40.67;;;23.33;;
24090;SDS011;12272;52.426;17.100;2022-11-21T03:19:21;39.87;;;23.87;;
24090;SDS011;12272;52.426;17.100;2022-11-21T03:24:24;31.67;;;18.53;;
24090;SDS011;12272;52.426;17.100;2022-11-21T03:29:26;40.43;;;22.13;;
24090;SDS011;12272;52.426;17.100;2022-11-21T03:34:29;36.53;;;21.13;;
24090;SDS011;12272;52.426;17.100;2022-11-21T03:39:32;38.30;;;22.40;;
24090;SDS011;12272;52.426;17.100;2022-11-21T03:44:34;31.43;;;18.17;;
24090;SDS011;12272;52.426;17.100;2022-11-21T03:49:37;30.03;;;18.17;;
24090;SDS011;12272;52.426;17.100;2022-11-21T03:54:39;35.10;;;22.03;;
24090;SDS011;12272;52.426;17.100;2022-11-21T03:59:41;29.90;;;18.47;;
24090;SDS011;12272;52.426;17.100;2022-11-21T04:04:44;25.40;;;15.87;;
24090;SDS011;12272;52.426;17.100;2022-11-21T04:09:47;37.10;;;23.57;;
24090;SDS011;12272;52.426;17.100;2022-11-21T04:14:49;34.07;;;21.37;;
24090;SDS011;12272;52.426;17.100;2022-11-21T04:19:52;30.37;;;19.63;;
24090;SDS011;12272;52.426;17.100;2022-11-21T04:24:54;32.93;;;20.03;;
24090;SDS011;12272;52.426;17.100;2022-11-21T04:29:57;36.53;;;22.03;;
24090;SDS011;12272;52.426;17.100;2022-11-21T04:34:59;31.07;;;18.90;;
24090;SDS011;12272;52.426;17.100;2022-11-21T04:40:02;25.57;;;16.57;;
24090;SDS011;12272;52.426;17.100;2022-11-21T04:45:04;40.40;;;25.77;;
24090;SDS011;12272;52.426;17.100;2022-11-21T04:50:08;43.13;;;25.50;;
24090;SDS011;12272;52.426;17.100;2022-11-21T04:55:12;44.43;;;25.53;;
24090;SDS011;12272;52.426;17.100;2022-11-21T05:00:16;47.07;;;27.80;;
24090;SDS011;12272;52.426;17.100;2022-11-21T05:05:25;43.00;;;25.80;;
24090;SDS011;12272;52.426;17.100;2022-11-21T05:10:28;29.83;;;18.57;;
24090;SDS011;12272;52.426;17.100;2022-11-21T05:15:31;31.00;;;18.63;;
24090;SDS011;12272;52.426;17.100;2022-11-21T05:20:33;31.40;;;19.27;;
24090;SDS011;12272;52.426;17.100;2022-11-21T05:25:38;41.77;;;26.93;;
24090;SDS011;12272;52.426;17.100;2022-11-21T05:30:41;37.87;;;23.63;;
24090;SDS011;12272;52.426;17.100;2022-11-21T05:35:43;42.40;;;25.67;;
24090;SDS011;12272;52.426;17.100;2022-11-21T05:40:46;37.83;;;23.83;;
24090;SDS011;12272;52.426;17.100;2022-11-21T05:45:48;29.47;;;18.20;;
24090;SDS011;12272;52.426;17.100;2022-11-21T05:50:51;29.00;;;16.83;;
24090;SDS011;12272;52.426;17.100;2022-11-21T05:55:53;34.10;;;18.37;;
24090;SDS011;12272;52.426;17.100;2022-11-21T06:00:56;27.13;;;17.37;;
24090;SDS011;12272;52.426;17.100;2022-11-21T06:11:08;48.83;;;27.93;;
24090;SDS011;12272;52.426;17.100;2022-11-21T06:16:16;46.17;;;27.43;;
24090;SDS011;12272;52.426;17.100;2022-11-21T06:21:24;35.60;;;21.87;;
24090;SDS011;12272;52.426;17.100;2022-11-21T06:26:29;29.63;;;17.70;;
24090;SDS011;12272;52.426;17.100;2022-11-21T06:31:31;34.60;;;20.23;;
24090;SDS011;12272;52.426;17.100;2022-11-21T06:36:33;35.70;;;20.97;;
24090;SDS011;12272;52.426;17.100;2022-11-21T06:41:36;33.00;;;20.40;;
24090;SDS011;12272;52.426;17.100;2022-11-21T06:46:38;43.70;;;27.57;;
24090;SDS011;12272;52.426;17.100;2022-11-21T06:51:41;38.93;;;21.73;;
24090;SDS011;12272;52.426;17.100;2022-11-21T06:56:44;38.10;;;21.20;;
24090;SDS011;12272;52.426;17.100;2022-11-21T07:01:46;40.40;;;21.37;;
24090;SDS011;12272;52.426;17.100;2022-11-21T07:06:48;39.23;;;22.27;;
24090;SDS011;12272;52.426;17.100;2022-11-21T07:11:51;31.23;;;20.33;;
24090;SDS011;12272;52.426;17.100;2022-11-21T07:16:53;32.37;;;20.40;;
24090;SDS011;12272;52.426;17.100;2022-11-21T07:21:56;36.80;;;20.87;;
24090;SDS011;12272;52.426;17.100;2022-11-21T07:26:59;32.90;;;20.73;;
24090;SDS011;12272;52.426;17.100;2022-11-21T07:32:02;35.87;;;20.73;;
24090;SDS011;12272;52.426;17.100;2022-11-21T07:37:05;35.23;;;20.83;;
24090;SDS011;12272;52.426;17.100;2022-11-21T07:42:07;32.87;;;19.90;;
24090;SDS011;12272;52.426;17.100;2022-11-21T07:47:10;37.50;;;22.43;;
24090;SDS011;12272;52.426;17.100;2022-11-21T07:52:12;58.67;;;36.17;;
24090;SDS011;12272;52.426;17.100;2022-11-21T07:57:15;56.60;;;33.97;;
24090;SDS011;12272;52.426;17.100;2022-11-21T08:02:18;67.63;;;37.93;;
24090;SDS011;12272;52.426;17.100;2022-11-21T08:07:24;62.87;;;35.77;;
24090;SDS011;12272;52.426;17.100;2022-11-21T08:12:27;62.50;;;38.40;;
24090;SDS011;12272;52.426;17.100;2022-11-21T08:17:29;73.73;;;37.40;;
24090;SDS011;12272;52.426;17.100;2022-11-21T08:22:36;61.43;;;36.30;;
24090;SDS011;12272;52.426;17.100;2022-11-21T08:27:42;64.67;;;37.13;;
24090;SDS011;12272;52.426;17.100;2022-11-21T08:32:45;81.37;;;43.83;;
24090;SDS011;12272;52.426;17.100;2022-11-21T08:37:47;66.87;;;39.10;;
24090;SDS011;12272;52.426;17.100;2022-11-21T08:47:59;85.00;;;40.93;;
24090;SDS011;12272;52.426;17.100;2022-11-21T08:53:02;86.30;;;61.47;;
24090;SDS011;12272;52.426;17.100;2022-11-21T08:58:05;70.90;;;44.80;;
24090;SDS011;12272;52.426;17.100;2022-11-21T09:03:07;74.63;;;44.03;;
24090;SDS011;12272;52.426;17.100;2022-11-21T09:08:09;84.00;;;51.40;;
24090;SDS011;12272;52.426;17.100;2022-11-21T09:13:12;93.83;;;57.37;;
24090;SDS011;12272;52.426;17.100;2022-11-21T09:18:14;90.27;;;54.57;;
24090;SDS011;12272;52.426;17.100;2022-11-21T09:23:17;45.27;;;25.47;;
24090;SDS011;12272;52.426;17.100;2022-11-21T09:28:19;50.07;;;27.57;;
24090;SDS011;12272;52.426;17.100;2022-11-21T09:33:22;54.17;;;30.27;;
24090;SDS011;12272;52.426;17.100;2022-11-21T09:38:25;47.03;;;26.27;;
24090;SDS011;12272;52.426;17.100;2022-11-21T09:49:12;52.00;;;29.60;;
24090;SDS011;12272;52.426;17.100;2022-11-21T09:54:18;47.73;;;28.70;;
24090;SDS011;12272;52.426;17.100;2022-11-21T09:59:33;44.73;;;27.60;;
24090;SDS011;12272;52.426;17.100;2022-11-21T10:04:38;47.30;;;26.60;;
24090;SDS011;12272;52.426;17.100;2022-11-21T10:09:52;59.47;;;34.80;;
24090;SDS011;12272;52.426;17.100;2022-11-21T10:25:54;44.97;;;25.67;;
24090;SDS011;12272;52.426;17.100;2022-11-21T10:30:58;50.07;;;26.80;;
24090;SDS011;12272;52.426;17.100;2022-11-21T10:41:46;53.37;;;33.30;;
24090;SDS011;12272;52.426;17.100;2022-11-21T10:46:56;45.77;;;30.00;;
24090;SDS011;12272;52.426;17.100;2022-11-21T10:52:13;42.53;;;23.40;;
24090;SDS011;12272;52.426;17.100;2022-11-21T10:57:20;40.73;;;23.90;;
24090;SDS011;12272;52.426;17.100;2022-11-21T11:02:23;44.23;;;27.07;;
24090;SDS011;12272;52.426;17.100;2022-11-21T11:07:26;49.80;;;31.80;;
24090;SDS011;12272;52.426;17.100;2022-11-21T11:12:30;50.73;;;35.53;;
24090;SDS011;12272;52.426;17.100;2022-11-21T11:18:01;40.17;;;23.90;;
24090;SDS011;12272;52.426;17.100;2022-11-21T11:23:28;47.07;;;30.07;;
24090;SDS011;12272;52.426;17.100;2022-11-21T11:28:34;38.43;;;23.43;;
24090;SDS011;12272;52.426;17.100;2022-11-21T11:33:41;54.93;;;30.47;;
24090;SDS011;12272;52.426;17.100;2022-11-21T11:38:59;46.33;;;28.83;;
24090;SDS011;12272;52.426;17.100;2022-11-21T11:44:06;42.03;;;23.63;;
24090;SDS011;12272;52.426;17.100;2022-11-21T11:49:41;47.77;;;29.93;;
24090;SDS011;12272;52.426;17.100;2022-11-21T11:55:19;45.33;;;28.87;;
24090;SDS011;12272;52.426;17.100;2022-11-21T12:05:51;51.13;;;30.40;;
24090;SDS011;12272;52.426;17.100;2022-11-21T12:11:02;40.80;;;23.60;;
24090;SDS011;12272;52.426;17.100;2022-11-21T12:16:31;49.03;;;30.43;;
24090;SDS011;12272;52.426;17.100;2022-11-21T12:21:37;45.00;;;28.00;;
24090;SDS011;12272;52.426;17.100;2022-11-21T12:37:36;51.17;;;30.80;;
24090;SDS011;12272;52.426;17.100;2022-11-21T13:05:22;49.10;;;29.30;;
24090;SDS011;12272;52.426;17.100;2022-11-21T13:10:28;54.50;;;30.70;;
24090;SDS011;12272;52.426;17.100;2022-11-21T13:15:40;56.90;;;31.73;;
24090;SDS011;12272;52.426;17.100;2022-11-21T13:20:53;55.57;;;31.83;;
24090;SDS011;12272;52.426;17.100;2022-11-21T13:25:55;79.03;;;41.63;;
24090;SDS011;12272;52.426;17.100;2022-11-21T13:31:01;45.40;;;27.00;;
24090;SDS011;12272;52.426;17.100;2022-11-21T13:36:32;64.57;;;34.13;;
24090;SDS011;12272;52.426;17.100;2022-11-21T13:52:33;52.70;;;30.13;;
24090;SDS011;12272;52.426;17.100;2022-11-21T14:08:22;68.03;;;36.27;;
24090;SDS011;12272;52.426;17.100;2022-11-21T14:13:31;42.13;;;24.60;;
24090;SDS011;12272;52.426;17.100;2022-11-21T14:18:38;71.83;;;37.50;;
24090;SDS011;12272;52.426;17.100;2022-11-21T14:23:44;71.57;;;37.43;;
24090;SDS011;12272;52.426;17.100;2022-11-21T14:28:47;185.27;;;93.90;;
24090;SDS011;12272;52.426;17.100;2022-11-21T14:33:54;220.90;;;114.03;;
24090;SDS011;12272;52.426;17.100;2022-11-21T14:38:59;105.00;;;59.20;;
24090;SDS011;12272;52.426;17.100;2022-11-21T14:44:27;77.07;;;39.00;;
24090;SDS011;12272;52.426;17.100;2022-11-21T14:49:30;123.57;;;59.27;;
24090;SDS011;12272;52.426;17.100;2022-11-21T14:54:33;133.87;;;57.73;;
24090;SDS011;12272;52.426;17.100;2022-11-21T15:00:04;55.77;;;28.17;;
24090;SDS011;12272;52.426;17.100;2022-11-21T15:05:11;54.80;;;28.60;;
24090;SDS011;12272;52.426;17.100;2022-11-21T15:10:36;52.73;;;29.33;;
24090;SDS011;12272;52.426;17.100;2022-11-21T15:15:41;55.83;;;28.20;;
24090;SDS011;12272;52.426;17.100;2022-11-21T15:20:52;66.17;;;33.17;;
24090;SDS011;12272;52.426;17.100;2022-11-21T15:25:57;54.97;;;29.97;;
24090;SDS011;12272;52.426;17.100;2022-11-21T15:31:15;68.50;;;35.90;;
24090;SDS011;12272;52.426;17.100;2022-11-21T15:36:19;53.30;;;30.97;;
24090;SDS011;12272;52.426;17.100;2022-11-21T15:41:22;63.17;;;33.73;;
24090;SDS011;12272;52.426;17.100;2022-11-21T15:46:28;53.03;;;30.40;;
24090;SDS011;12272;52.426;17.100;2022-11-21T15:56:58;64.33;;;32.73;;
24090;SDS011;12272;52.426;17.100;2022-11-21T16:02:00;54.80;;;30.80;;
24090;SDS011;12272;52.426;17.100;2022-11-21T16:07:03;73.90;;;39.77;;
24090;SDS011;12272;52.426;17.100;2022-11-21T16:12:06;56.90;;;31.37;;
24090;SDS011;12272;52.426;17.100;2022-11-21T16:17:10;71.43;;;34.23;;
24090;SDS011;12272;52.426;17.100;2022-11-21T16:22:12;71.53;;;38.93;;
24090;SDS011;12272;52.426;17.100;2022-11-21T16:27:15;68.20;;;36.17;;
24090;SDS011;12272;52.426;17.100;2022-11-21T16:32:17;63.47;;;34.30;;
24090;SDS011;12272;52.426;17.100;2022-11-21T16:37:20;50.57;;;29.53;;
24090;SDS011;12272;52.426;17.100;2022-11-21T16:42:22;50.23;;;27.97;;
24090;SDS011;12272;52.426;17.100;2022-11-21T16:47:24;62.67;;;33.27;;
24090;SDS011;12272;52.426;17.100;2022-11-21T16:52:29;67.57;;;32.97;;
24090;SDS011;12272;52.426;17.100;2022-11-21T16:57:35;49.00;;;29.03;;
24090;SDS011;12272;52.426;17.100;2022-11-21T17:02:37;65.17;;;34.57;;
24090;SDS011;12272;52.426;17.100;2022-11-21T17:07:40;84.77;;;42.40;;
24090;SDS011;12272;52.426;17.100;2022-11-21T17:12:42;102.53;;;55.67;;
24090;SDS011;12272;52.426;17.100;2022-11-21T17:17:45;91.87;;;47.53;;
24090;SDS011;12272;52.426;17.100;2022-11-21T17:22:48;50.23;;;26.57;;
24090;SDS011;12272;52.426;17.100;2022-11-21T17:27:50;80.10;;;42.10;;
24090;SDS011;12272;52.426;17.100;2022-11-21T17:32:53;79.03;;;42.60;;
24090;SDS011;12272;52.426;17.100;2022-11-21T17:37:55;101.33;;;49.87;;
24090;SDS011;12272;52.426;17.100;2022-11-21T17:42:58;56.13;;;30.23;;
24090;SDS011;12272;52.426;17.100;2022-11-21T17:48:00;61.67;;;32.10;;
24090;SDS011;12272;52.426;17.100;2022-11-21T17:53:03;52.67;;;28.77;;
24090;SDS011;12272;52.426;17.100;2022-11-21T17:58:05;83.63;;;40.37;;
24090;SDS011;12272;52.426;17.100;2022-11-21T18:03:08;72.30;;;37.00;;
24090;SDS011;12272;52.426;17.100;2022-11-21T18:08:11;88.03;;;46.60;;
24090;SDS011;12272;52.426;17.100;2022-11-21T18:13:13;79.53;;;40.63;;
24090;SDS011;12272;52.426;17.100;2022-11-21T18:18:16;96.07;;;44.83;;
24090;SDS011;12272;52.426;17.100;2022-11-21T18:23:18;65.13;;;34.20;;
24090;SDS011;12272;52.426;17.100;2022-11-21T18:28:21;75.07;;;39.73;;
24090;SDS011;12272;52.426;17.100;2022-11-21T18:33:23;80.97;;;40.70;;
24090;SDS011;12272;52.426;17.100;2022-11-21T18:38:26;105.07;;;50.20;;
24090;SDS011;12272;52.426;17.100;2022-11-21T18:43:57;89.33;;;47.60;;
24090;SDS011;12272;52.426;17.100;2022-11-21T18:49:01;127.80;;;62.10;;
24090;SDS011;12272;52.426;17.100;2022-11-21T18:54:08;114.77;;;57.00;;
24090;SDS011;12272;52.426;17.100;2022-11-21T18:59:12;121.00;;;54.37;;
24090;SDS011;12272;52.426;17.100;2022-11-21T19:04:14;83.00;;;41.90;;
24090;SDS011;12272;52.426;17.100;2022-11-21T19:09:17;99.27;;;49.00;;
24090;SDS011;12272;52.426;17.100;2022-11-21T19:14:19;64.23;;;31.40;;
24090;SDS011;12272;52.426;17.100;2022-11-21T19:19:22;67.87;;;34.23;;
24090;SDS011;12272;52.426;17.100;2022-11-21T19:24:35;45.37;;;23.83;;
24090;SDS011;12272;52.426;17.100;2022-11-21T19:29:38;39.00;;;21.27;;
24090;SDS011;12272;52.426;17.100;2022-11-21T19:34:41;40.53;;;24.03;;
24090;SDS011;12272;52.426;17.100;2022-11-21T19:39:43;62.07;;;31.67;;
24090;SDS011;12272;52.426;17.100;2022-11-21T19:44:46;52.80;;;29.93;;
24090;SDS011;12272;52.426;17.100;2022-11-21T19:49:48;58.60;;;31.53;;
24090;SDS011;12272;52.426;17.100;2022-11-21T19:54:51;66.03;;;32.77;;
24090;SDS011;12272;52.426;17.100;2022-11-21T19:59:54;42.63;;;23.80;;
24090;SDS011;12272;52.426;17.100;2022-11-21T20:04:56;51.30;;;26.47;;
24090;SDS011;12272;52.426;17.100;2022-11-21T20:09:58;49.17;;;30.40;;
24090;SDS011;12272;52.426;17.100;2022-11-21T20:15:01;54.23;;;31.10;;
24090;SDS011;12272;52.426;17.100;2022-11-21T20:20:04;37.53;;;21.40;;
24090;SDS011;12272;52.426;17.100;2022-11-21T20:25:06;38.70;;;21.30;;
24090;SDS011;12272;52.426;17.100;2022-11-21T20:30:10;43.17;;;25.40;;
24090;SDS011;12272;52.426;17.100;2022-11-21T20:35:12;40.73;;;23.27;;
24090;SDS011;12272;52.426;17.100;2022-11-21T20:40:15;38.30;;;22.77;;
24090;SDS011;12272;52.426;17.100;2022-11-21T20:45:17;40.27;;;22.30;;
24090;SDS011;12272;52.426;17.100;2022-11-21T20:50:40;40.13;;;22.77;;
24090;SDS011;12272;52.426;17.100;2022-11-21T20:56:03;33.20;;;19.10;;
24090;SDS011;12272;52.426;17.100;2022-11-21T21:01:12;24.33;;;16.10;;
24090;SDS011;12272;52.426;17.100;2022-11-21T21:06:16;26.40;;;16.83;;
24090;SDS011;12272;52.426;17.100;2022-11-21T21:11:19;36.03;;;19.50;;
24090;SDS011;12272;52.426;17.100;2022-11-21T21:16:45;37.83;;;22.50;;
24090;SDS011;12272;52.426;17.100;2022-11-21T21:21:48;32.83;;;20.13;;
24090;SDS011;12272;52.426;17.100;2022-11-21T21:26:50;33.57;;;18.07;;
24090;SDS011;12272;52.426;17.100;2022-11-21T21:31:52;33.70;;;19.77;;
24090;SDS011;12272;52.426;17.100;2022-11-21T21:36:55;30.40;;;18.73;;
24090;SDS011;12272;52.426;17.100;2022-11-21T21:41:57;26.10;;;16.50;;
24090;SDS011;12272;52.426;17.100;2022-11-21T21:47:00;29.97;;;19.07;;
24090;SDS011;12272;52.426;17.100;2022-11-21T21:52:02;29.57;;;18.43;;
24090;SDS011;12272;52.426;17.100;2022-11-21T21:57:05;30.83;;;19.03;;
24090;SDS011;12272;52.426;17.100;2022-11-21T22:02:09;34.13;;;19.33;;
24090;SDS011;12272;52.426;17.100;2022-11-21T22:07:12;30.73;;;19.60;;
24090;SDS011;12272;52.426;17.100;2022-11-21T22:12:14;26.70;;;16.13;;
24090;SDS011;12272;52.426;17.100;2022-11-21T22:17:17;22.40;;;13.57;;
24090;SDS011;12272;52.426;17.100;2022-11-21T22:22:19;28.53;;;17.00;;
24090;SDS011;12272;52.426;17.100;2022-11-21T22:27:22;29.13;;;17.63;;
24090;SDS011;12272;52.426;17.100;2022-11-21T22:32:24;30.07;;;16.87;;
24090;SDS011;12272;52.426;17.100;2022-11-21T22:37:27;35.73;;;19.73;;
24090;SDS011;12272;52.426;17.100;2022-11-21T22:42:30;39.43;;;22.43;;
24090;SDS011;12272;52.426;17.100;2022-11-21T22:47:33;35.83;;;20.63;;
24090;SDS011;12272;52.426;17.100;2022-11-21T22:52:35;38.30;;;21.13;;
24090;SDS011;12272;52.426;17.100;2022-11-21T22:57:38;46.10;;;25.80;;
24090;SDS011;12272;52.426;17.100;2022-11-21T23:02:40;41.27;;;22.97;;
24090;SDS011;12272;52.426;17.100;2022-11-21T23:07:45;43.47;;;24.53;;
24090;SDS011;12272;52.426;17.100;2022-11-21T23:12:48;45.80;;;25.80;;
24090;SDS011;12272;52.426;17.100;2022-11-21T23:17:50;40.50;;;23.00;;
24090;SDS011;12272;52.426;17.100;2022-11-21T23:22:54;44.03;;;24.20;;
24090;SDS011;12272;52.426;17.100;2022-11-21T23:27:57;58.40;;;32.37;;
24090;SDS011;12272;52.426;17.100;2022-11-21T23:32:59;59.50;;;31.87;;
24090;SDS011;12272;52.426;17.100;2022-11-21T23:38:05;109.00;;;55.23;;
24090;SDS011;12272;52.426;17.100;2022-11-21T23:43:07;52.20;;;28.00;;
24090;SDS011;12272;52.426;17.100;2022-11-21T23:48:10;49.50;;;26.97;;
24090;SDS011;12272;52.426;17.100;2022-11-21T23:53:12;46.23;;;25.83;;
24090;SDS011;12272;52.426;17.100;2022-11-21T23:58:15;36.97;;;22.63;;
